createdAt,value
2022-10-31T00:01:17.808Z,101501.59
2022-10-31T00:04:20.296Z,101498.81
2022-10-31T00:07:22.786Z,101515.34
2022-10-31T00:10:25.248Z,101513.53
2022-10-31T00:13:27.743Z,101517.16
2022-10-31T00:16:31.797Z,101518.69
2022-10-31T00:19:34.296Z,101511.75
2022-10-31T00:22:36.777Z,101510.63
2022-10-31T00:25:40.805Z,101514.47
2022-10-31T00:28:43.359Z,101521.44
2022-10-31T00:31:47.209Z,101517.94
2022-10-31T00:34:49.708Z,101521.53
2022-10-31T00:37:53.828Z,101529.63
2022-10-31T00:40:56.330Z,101527.47
2022-10-31T00:43:58.914Z,101519.47
2022-10-31T00:47:02.729Z,101512.91
2022-10-31T00:50:06.259Z,101519.00
2022-10-31T00:53:08.852Z,101512.66
2022-10-31T00:56:11.483Z,101522.41
2022-10-31T00:59:13.976Z,101513.59
2022-10-31T01:02:17.930Z,101517.97
2022-10-31T01:05:20.896Z,101522.47
2022-10-31T01:08:23.398Z,101508.59
2022-10-31T01:11:25.914Z,101515.81
2022-10-31T01:14:28.396Z,101518.41
2022-10-31T01:17:32.234Z,101529.28
2022-10-31T01:20:34.719Z,101524.59
2022-10-31T01:23:38.039Z,101537.16
2022-10-31T01:26:40.532Z,101541.53
2022-10-31T01:29:43.012Z,101542.63
2022-10-31T01:32:46.809Z,101540.88
2022-10-31T01:35:49.283Z,101547.28
2022-10-31T01:38:54.185Z,101547.34
2022-10-31T01:41:56.804Z,101558.94
2022-10-31T01:45:02.060Z,101549.53
2022-10-31T01:48:06.267Z,101558.06
2022-10-31T01:51:09.786Z,101563.16
2022-10-31T01:54:17.268Z,101560.38
2022-10-31T01:57:22.104Z,101564.75
2022-10-31T02:00:24.788Z,101564.88
2022-10-31T02:03:29.262Z,101564.75
2022-10-31T02:06:37.759Z,101571.03
2022-10-31T02:09:42.710Z,101574.66
2022-10-31T02:12:46.732Z,101581.63
2022-10-31T02:15:52.252Z,101573.50
2022-10-31T02:18:57.255Z,101578.88
2022-10-31T02:22:07.933Z,101583.28
2022-10-31T02:25:23.815Z,101582.66
2022-10-31T02:28:39.517Z,101587.84
2022-10-31T02:31:48.448Z,101591.56
2022-10-31T02:35:00.282Z,101584.63
2022-10-31T02:38:12.031Z,101591.69
2022-10-31T02:41:21.864Z,101594.38
2022-10-31T02:44:30.807Z,101600.50
2022-10-31T02:47:38.472Z,101602.63
2022-10-31T02:50:44.470Z,101599.16
2022-10-31T02:53:46.986Z,101601.44
2022-10-31T02:56:53.037Z,101607.44
2022-10-31T03:00:01.801Z,101610.66
2022-10-31T03:03:14.340Z,101614.84
2022-10-31T03:06:22.506Z,101615.59
2022-10-31T03:09:29.082Z,101618.81
2022-10-31T03:12:43.111Z,101613.34
2022-10-31T03:15:53.067Z,101619.81
2022-10-31T03:19:01.799Z,101617.00
2022-10-31T03:22:09.250Z,101615.34
2022-10-31T03:25:13.972Z,101623.44
2022-10-31T03:28:20.861Z,101626.34
2022-10-31T03:31:28.664Z,101630.88
2022-10-31T03:34:33.721Z,101634.41
2022-10-31T03:37:38.411Z,101633.34
2022-10-31T03:40:45.525Z,101644.03
2022-10-31T03:43:53.923Z,101644.81
2022-10-31T03:46:56.585Z,101644.97
2022-10-31T03:50:00.473Z,101648.38
2022-10-31T03:53:09.487Z,101652.72
2022-10-31T03:56:19.129Z,101654.59
2022-10-31T03:59:28.180Z,101670.47
2022-10-31T04:02:35.650Z,101673.09
2022-10-31T04:05:40.768Z,101667.63
2022-10-31T04:08:50.441Z,101675.94
2022-10-31T04:11:56.229Z,101681.00
2022-10-31T04:15:00.798Z,101682.13
2022-10-31T04:18:05.863Z,101686.34
2022-10-31T04:21:10.551Z,101687.97
2022-10-31T04:24:13.401Z,101679.50
2022-10-31T04:27:15.868Z,101691.09
2022-10-31T04:30:18.432Z,101681.28
2022-10-31T04:33:20.940Z,101686.91
2022-10-31T04:36:24.785Z,101688.34
2022-10-31T04:39:27.252Z,101694.63
2022-10-31T04:42:31.310Z,101686.59
2022-10-31T04:45:33.790Z,101683.69
2022-10-31T04:48:36.308Z,101687.22
2022-10-31T04:51:40.111Z,101688.19
2022-10-31T04:54:42.595Z,101688.16
2022-10-31T04:57:46.421Z,101685.66
2022-10-31T05:00:49.010Z,101692.56
2022-10-31T05:03:51.538Z,101696.28
2022-10-31T05:06:55.359Z,101688.19
2022-10-31T05:09:57.824Z,101685.94
2022-10-31T05:13:02.536Z,101689.19
2022-10-31T05:16:05.773Z,101691.69
2022-10-31T05:19:08.263Z,101693.66
2022-10-31T05:22:12.059Z,101702.56
2022-10-31T05:25:14.924Z,101692.50
2022-10-31T05:28:17.410Z,101706.75
2022-10-31T05:31:19.887Z,101703.16
2022-10-31T05:34:22.376Z,101709.78
2022-10-31T05:37:26.172Z,101707.22
2022-10-31T05:40:29.900Z,101712.75
2022-10-31T05:43:32.384Z,101708.66
2022-10-31T05:49:42.304Z,101699.44
2022-10-31T05:52:46.136Z,101699.38
2022-10-31T05:55:48.666Z,101702.38
2022-10-31T05:58:51.131Z,101705.06
2022-10-31T06:01:53.663Z,101701.31
2022-10-31T06:04:56.333Z,101706.25
2022-10-31T06:08:01.051Z,101706.28
2022-10-31T06:11:03.883Z,101712.00
2022-10-31T06:14:07.067Z,101706.94
2022-10-31T06:17:10.602Z,101704.56
2022-10-31T06:20:13.363Z,101721.94
2022-10-31T06:23:17.173Z,101723.66
2022-10-31T06:26:19.661Z,101723.53
2022-10-31T06:29:22.207Z,101720.06
2022-10-31T06:32:24.669Z,101717.66
2022-10-31T06:35:27.156Z,101731.34
2022-10-31T06:38:31.237Z,101739.41
2022-10-31T06:41:33.731Z,101748.50
2022-10-31T06:44:36.232Z,101750.53
2022-10-31T06:47:50.980Z,101752.00
2022-10-31T06:50:59.858Z,101750.38
2022-10-31T06:54:03.745Z,101752.25
2022-10-31T06:57:06.260Z,101755.03
2022-10-31T07:00:10.309Z,101760.19
2022-10-31T07:03:14.754Z,101757.09
2022-10-31T07:06:17.409Z,101767.84
2022-10-31T07:09:21.365Z,101773.28
2022-10-31T07:12:23.871Z,101774.66
2022-10-31T07:15:26.706Z,101781.06
2022-10-31T07:18:29.820Z,101776.81
2022-10-31T07:21:32.301Z,101779.75
2022-10-31T07:24:36.160Z,101785.78
2022-10-31T07:27:41.717Z,101783.53
2022-10-31T07:30:45.409Z,101783.25
2022-10-31T07:33:47.895Z,101788.34
2022-10-31T07:36:52.924Z,101785.28
2022-10-31T07:39:56.750Z,101784.38
2022-10-31T07:42:59.840Z,101790.63
2022-10-31T07:46:02.325Z,101791.59
2022-10-31T07:49:04.920Z,101784.44
2022-10-31T07:52:07.436Z,101783.06
2022-10-31T07:55:11.930Z,101793.78
2022-10-31T07:58:16.449Z,101810.13
2022-10-31T08:01:18.926Z,101812.56
2022-10-31T08:04:21.419Z,101806.69
2022-10-31T08:07:24.050Z,101803.97
2022-10-31T08:10:29.376Z,101801.81
2022-10-31T08:13:31.878Z,101812.13
2022-10-31T08:16:34.355Z,101810.38
2022-10-31T08:19:36.827Z,101803.81
2022-10-31T08:22:42.812Z,101797.69
2022-10-31T08:25:48.552Z,101809.16
2022-10-31T08:28:51.484Z,101808.69
2022-10-31T08:31:53.980Z,101814.19
2022-10-31T08:34:56.452Z,101815.97
2022-10-31T08:38:00.089Z,101815.94
2022-10-31T08:41:04.241Z,101815.53
2022-10-31T08:44:06.695Z,101819.22
2022-10-31T08:47:09.200Z,101820.88
2022-10-31T08:50:11.674Z,101819.47
2022-10-31T08:53:17.175Z,101814.84
2022-10-31T08:56:21.060Z,101818.63
2022-10-31T08:59:23.728Z,101825.53
2022-10-31T09:02:26.439Z,101819.72
2022-10-31T09:05:29.084Z,101805.41
2022-10-31T09:08:32.661Z,101801.69
2022-10-31T09:11:36.471Z,101802.19
2022-10-31T09:14:38.952Z,101800.28
2022-10-31T09:17:41.436Z,101804.19
2022-10-31T09:20:45.572Z,101806.69
2022-10-31T09:23:48.060Z,101796.94
2022-10-31T09:26:51.890Z,101802.84
2022-10-31T09:29:54.359Z,101801.28
2022-10-31T09:32:57.498Z,101793.19
2022-10-31T09:36:00.461Z,101794.47
2022-10-31T09:39:03.135Z,101795.81
2022-10-31T09:42:25.579Z,101799.28
2022-10-31T09:45:33.191Z,101797.63
2022-10-31T09:48:45.087Z,101796.50
2022-10-31T09:51:53.831Z,101809.94
2022-10-31T09:55:00.889Z,101809.94
2022-10-31T09:58:05.395Z,101824.44
2022-10-31T10:01:14.154Z,101818.56
2022-10-31T10:04:32.305Z,101813.69
2022-10-31T10:07:45.407Z,101817.13
2022-10-31T10:10:53.172Z,101824.47
2022-10-31T10:14:20.816Z,101825.81
2022-10-31T10:17:34.993Z,101827.75
2022-10-31T10:20:45.683Z,101822.25
2022-10-31T10:23:58.443Z,101822.00
2022-10-31T10:27:15.797Z,101813.31
2022-10-31T10:30:25.529Z,101827.72
2022-10-31T10:33:33.648Z,101825.84
2022-10-31T10:36:43.895Z,101818.34
2022-10-31T10:39:50.675Z,101803.28
2022-10-31T10:43:22.900Z,101806.34
2022-10-31T10:46:53.871Z,101806.59
2022-10-31T10:49:56.735Z,101799.66
2022-10-31T10:53:09.119Z,101802.13
2022-10-31T10:56:19.509Z,101797.66
2022-10-31T10:59:23.962Z,101798.59
2022-10-31T11:02:29.536Z,101802.84
2022-10-31T11:05:37.927Z,101799.53
2022-10-31T11:08:40.423Z,101792.72
2022-10-31T11:11:43.156Z,101801.97
2022-10-31T11:14:48.832Z,101797.19
2022-10-31T11:17:54.384Z,101798.78
2022-10-31T11:20:59.134Z,101791.13
2022-10-31T11:24:05.447Z,101783.88
2022-10-31T11:27:16.193Z,101798.22
2022-10-31T11:30:18.702Z,101781.19
2022-10-31T11:33:28.599Z,101768.59
2022-10-31T11:36:33.008Z,101774.09
2022-10-31T11:39:43.662Z,101772.91
2022-10-31T11:42:47.072Z,101782.09
2022-10-31T11:45:49.873Z,101775.97
2022-10-31T11:48:57.352Z,101779.56
2022-10-31T11:52:03.194Z,101776.41
2022-10-31T11:55:18.078Z,101769.66
2022-10-31T11:58:25.143Z,101765.47
2022-10-31T12:01:29.846Z,101762.19
2022-10-31T12:04:45.520Z,101751.19
2022-10-31T12:07:48.432Z,101754.31
2022-10-31T12:11:03.197Z,101745.06
2022-10-31T12:14:19.119Z,101755.25
2022-10-31T12:17:25.576Z,101755.53
2022-10-31T12:20:42.425Z,101755.97
2022-10-31T12:23:57.313Z,101757.81
2022-10-31T12:27:11.973Z,101751.28
2022-10-31T12:30:20.742Z,101742.88
2022-10-31T12:33:36.450Z,101749.28
2022-10-31T12:36:51.763Z,101745.63
2022-10-31T12:40:07.568Z,101748.63
2022-10-31T12:43:26.194Z,101737.66
2022-10-31T12:46:54.570Z,101746.06
2022-10-31T12:50:07.924Z,101750.25
2022-10-31T12:53:24.615Z,101747.50
2022-10-31T12:56:39.055Z,101745.13
2022-10-31T12:59:47.305Z,101734.94
2022-10-31T13:02:54.882Z,101730.22
2022-10-31T13:06:01.499Z,101731.84
2022-10-31T13:09:09.951Z,101722.44
2022-10-31T13:12:17.071Z,101723.97
2022-10-31T13:15:22.676Z,101711.97
2022-10-31T13:18:31.256Z,101712.03
2022-10-31T13:21:39.393Z,101716.63
2022-10-31T13:24:49.060Z,101712.69
2022-10-31T13:27:56.097Z,101721.19
2022-10-31T13:30:58.600Z,101713.28
2022-10-31T13:34:05.527Z,101711.06
2022-10-31T13:37:17.675Z,101713.44
2022-10-31T13:40:34.862Z,101710.41
2022-10-31T13:43:56.823Z,101704.28
2022-10-31T13:47:00.113Z,101697.38
2022-10-31T13:50:08.436Z,101696.09
2022-10-31T13:53:20.465Z,101686.28
2022-10-31T13:56:27.237Z,101680.84
2022-10-31T13:59:32.820Z,101676.13
2022-10-31T14:02:37.675Z,101667.16
2022-10-31T14:05:40.176Z,101659.38
2022-10-31T14:08:49.539Z,101658.91
2022-10-31T14:11:54.628Z,101656.28
2022-10-31T14:15:07.046Z,101649.81
2022-10-31T14:18:24.490Z,101646.31
2022-10-31T14:21:32.271Z,101644.91
2022-10-31T14:24:38.636Z,101640.03
2022-10-31T14:27:52.895Z,101642.31
2022-10-31T14:30:56.901Z,101630.13
2022-10-31T14:34:00.191Z,101636.34
2022-10-31T14:37:38.600Z,101618.22
2022-10-31T14:40:53.933Z,101612.22
2022-10-31T14:44:21.523Z,101609.34
2022-10-31T14:47:34.893Z,101602.88
2022-10-31T14:50:47.754Z,101604.03
2022-10-31T14:53:52.405Z,101592.44
2022-10-31T14:56:58.395Z,101583.72
2022-10-31T15:00:06.263Z,101574.91
2022-10-31T15:03:16.569Z,101570.97
2022-10-31T15:06:22.696Z,101573.41
2022-10-31T15:09:27.269Z,101570.16
2022-10-31T15:12:32.102Z,101571.25
2022-10-31T15:15:36.122Z,101579.75
2022-10-31T15:18:46.460Z,101571.69
2022-10-31T15:21:49.133Z,101583.69
2022-10-31T15:24:56.944Z,101609.97
2022-10-31T15:27:59.809Z,101623.69
2022-10-31T15:31:04.464Z,101608.38
2022-10-31T15:34:16.899Z,101597.47
2022-10-31T15:37:21.384Z,101593.34
2022-10-31T15:40:27.664Z,101580.56
2022-10-31T15:43:37.365Z,101565.47
2022-10-31T15:46:41.296Z,101553.03
2022-10-31T15:49:50.859Z,101541.19
2022-10-31T15:52:53.575Z,101533.53
2022-10-31T15:55:58.355Z,101532.69
2022-10-31T15:59:02.800Z,101548.25
2022-10-31T16:02:13.670Z,101563.13
2022-10-31T16:05:19.275Z,101563.78
2022-10-31T16:08:27.475Z,101546.25
2022-10-31T16:11:36.053Z,101538.03
2022-10-31T16:14:42.143Z,101536.31
2022-10-31T16:17:48.473Z,101540.03
2022-10-31T16:20:53.586Z,101533.91
2022-10-31T16:24:03.805Z,101528.03
2022-10-31T16:27:19.509Z,101514.84
2022-10-31T16:30:42.787Z,101513.63
2022-10-31T16:33:50.790Z,101520.38
2022-10-31T16:36:53.307Z,101525.97
2022-10-31T16:39:55.786Z,101527.16
2022-10-31T16:43:00.158Z,101521.91
2022-10-31T16:46:02.979Z,101519.53
2022-10-31T16:49:06.848Z,101522.22
2022-10-31T16:52:09.439Z,101517.59
2022-10-31T16:55:15.988Z,101505.38
2022-10-31T16:58:23.398Z,101500.47
2022-10-31T17:01:26.072Z,101495.88
2022-10-31T17:04:30.437Z,101501.53
2022-10-31T17:07:32.921Z,101498.97
2022-10-31T17:10:36.139Z,101491.88
2022-10-31T17:13:38.627Z,101492.66
2022-10-31T17:16:41.136Z,101494.19
2022-10-31T17:19:44.947Z,101493.84
2022-10-31T17:22:47.464Z,101488.91
2022-10-31T17:25:49.965Z,101495.06
2022-10-31T17:28:52.457Z,101502.22
2022-10-31T17:31:54.995Z,101502.56
2022-10-31T17:34:58.825Z,101508.41
2022-10-31T17:38:01.410Z,101501.03
2022-10-31T17:41:10.008Z,101501.03
2022-10-31T17:44:14.000Z,101484.38
2022-10-31T17:47:16.531Z,101488.69
2022-10-31T17:50:22.248Z,101485.97
2022-10-31T17:53:24.721Z,101484.59
2022-10-31T17:56:27.559Z,101481.41
2022-10-31T17:59:30.208Z,101483.88
2022-10-31T18:02:32.836Z,101477.34
2022-10-31T18:05:37.350Z,101485.59
2022-10-31T18:08:41.481Z,101491.09
2022-10-31T18:11:44.616Z,101498.00
2022-10-31T18:14:48.552Z,101490.41
2022-10-31T18:17:51.281Z,101486.47
2022-10-31T18:20:58.248Z,101471.47
2022-10-31T18:24:02.836Z,101468.31
2022-10-31T18:27:06.067Z,101462.38
2022-10-31T18:30:09.673Z,101465.69
2022-10-31T18:33:12.154Z,101459.84
2022-10-31T18:36:16.033Z,101443.44
2022-10-31T18:39:18.514Z,101434.78
2022-10-31T18:42:21.006Z,101436.53
2022-10-31T18:45:33.884Z,101445.47
2022-10-31T18:48:46.519Z,101460.56
2022-10-31T18:51:50.517Z,101454.53
2022-10-31T18:54:53.030Z,101443.59
2022-10-31T18:57:55.529Z,101443.75
2022-10-31T19:00:58.063Z,101430.72
2022-10-31T19:04:00.644Z,101428.59
2022-10-31T19:07:04.496Z,101425.38
2022-10-31T19:10:07.411Z,101405.06
2022-10-31T19:13:10.004Z,101405.91
2022-10-31T19:16:14.878Z,101426.19
2022-10-31T19:19:17.487Z,101402.03
2022-10-31T19:22:21.365Z,101408.78
2022-10-31T19:25:23.943Z,101415.88
2022-10-31T19:28:26.592Z,101422.50
2022-10-31T19:31:29.060Z,101384.97
2022-10-31T19:34:31.570Z,101393.25
2022-10-31T19:37:35.497Z,101412.84
2022-10-31T19:40:38.200Z,101423.88
2022-10-31T19:43:40.822Z,101433.03
2022-10-31T19:46:53.411Z,101426.47
2022-10-31T19:49:56.494Z,101406.44
2022-10-31T19:53:01.635Z,101411.25
2022-10-31T19:56:04.908Z,101407.66
2022-10-31T19:59:07.955Z,101398.28
2022-10-31T20:02:19.536Z,101387.66
2022-10-31T20:05:22.517Z,101366.94
2022-10-31T20:08:26.369Z,101344.28
2022-10-31T20:11:29.578Z,101325.03
2022-10-31T20:14:32.384Z,101321.16
2022-10-31T20:17:34.865Z,101324.75
2022-10-31T20:20:37.560Z,101336.94
2022-10-31T20:23:42.240Z,101346.31
2022-10-31T20:26:44.764Z,101361.91
2022-10-31T20:29:47.248Z,101345.88
2022-10-31T20:32:50.204Z,101352.25
2022-10-31T20:35:53.094Z,101331.16
2022-10-31T20:38:56.910Z,101327.19
2022-10-31T20:41:59.396Z,101328.88
2022-10-31T20:45:02.212Z,101333.06
2022-10-31T20:48:05.082Z,101326.69
2022-10-31T20:51:10.940Z,101325.25
2022-10-31T20:54:15.345Z,101315.69
2022-10-31T20:57:17.890Z,101312.25
2022-10-31T21:00:20.450Z,101316.63
2022-10-31T21:03:23.280Z,101314.72
2022-10-31T21:06:26.264Z,101310.78
2022-10-31T21:09:30.125Z,101301.06
2022-10-31T21:12:32.745Z,101303.16
2022-10-31T21:15:35.278Z,101288.19
2022-10-31T21:18:38.951Z,101280.44
2022-10-31T21:21:41.880Z,101275.53
2022-10-31T21:24:45.812Z,101276.00
2022-10-31T21:27:48.526Z,101265.50
2022-10-31T21:30:52.511Z,101258.00
2022-10-31T21:33:55.157Z,101253.75
2022-10-31T21:36:57.670Z,101248.47
2022-10-31T21:40:01.499Z,101243.41
2022-10-31T21:43:04.265Z,101238.16
2022-10-31T21:46:08.483Z,101241.31
2022-10-31T21:49:11.352Z,101240.69
2022-10-31T21:52:14.154Z,101244.06
2022-10-31T21:55:17.102Z,101240.03
2022-10-31T21:58:19.836Z,101245.44
2022-10-31T22:01:23.974Z,101235.19
2022-10-31T22:04:26.857Z,101229.53
2022-10-31T22:07:29.396Z,101222.47
2022-10-31T22:10:34.484Z,101213.38
2022-10-31T22:13:37.550Z,101210.69
2022-10-31T22:16:40.543Z,101203.31
2022-10-31T22:19:43.075Z,101184.38
2022-10-31T22:22:47.648Z,101184.16
2022-10-31T22:25:51.460Z,101182.28
2022-10-31T22:28:57.800Z,101168.34
2022-10-31T22:32:01.989Z,101174.72
2022-10-31T22:35:05.179Z,101181.31
2022-10-31T22:38:07.707Z,101175.16
2022-10-31T22:41:12.964Z,101163.34
2022-10-31T22:44:15.460Z,101150.09
2022-10-31T22:47:17.924Z,101144.28
2022-10-31T22:50:20.483Z,101141.94
2022-10-31T22:53:22.990Z,101144.91
2022-10-31T22:56:29.546Z,101143.81
2022-10-31T22:59:32.277Z,101144.50
2022-10-31T23:02:35.096Z,101142.78
2022-10-31T23:05:37.649Z,101141.38
2022-10-31T23:08:40.801Z,101141.13
2022-10-31T23:11:45.154Z,101138.22
2022-10-31T23:14:46.671Z,101138.63
2022-10-31T23:17:49.165Z,101137.38
2022-10-31T23:20:52.415Z,101155.44
2022-10-31T23:23:54.917Z,101152.06
2022-10-31T23:27:09.291Z,101146.00
2022-10-31T23:30:12.073Z,101149.78
2022-10-31T23:33:14.568Z,101138.94
2022-10-31T23:36:17.310Z,101125.66
2022-10-31T23:39:22.746Z,101123.16
2022-10-31T23:42:29.672Z,101106.44
2022-10-31T23:45:32.256Z,101115.88
2022-10-31T23:48:34.808Z,101109.72
2022-10-31T23:51:37.406Z,101102.53
2022-10-31T23:54:40.549Z,101107.69
2022-10-31T23:57:44.404Z,101086.88
